Time;durP1;ratioP1;P1;durP2;ratioP2;P2;SDS_P1;SDS_P2;PMS_P1;PMS_P2;Temp;Humidity;BMP_temperature;BMP_pressure;BME280_temperature;BME280_humidity;BME280_pressure;Samples;Min_cycle;Max_cycle;Signal;HPM_P1;HPM_P2
2022/05/24 00:01:06;;;;;;;2.22;1.10;;;;;;;11.73;64.87;98644.41;4959640;28;20426;-42
2022/05/24 00:03:32;;;;;;;4.85;2.75;;;;;;;11.67;65.33;98644.56;4958244;28;20751;-44
2022/05/24 00:05:59;;;;;;;2.88;2.63;;;;;;;11.66;65.28;98640.28;4961068;28;20050;-42
2022/05/24 00:08:26;;;;;;;4.32;2.83;;;;;;;11.60;65.90;98643.06;4958855;28;20059;-41
2022/05/24 00:10:53;;;;;;;5.50;2.90;;;;;;;11.58;66.00;98640.50;4957327;28;20561;-41
2022/05/24 00:13:19;;;;;;;3.25;2.35;;;;;;;11.53;65.65;98638.06;4964802;28;20061;-43
2022/05/24 00:15:46;;;;;;;3.25;2.92;;;;;;;11.51;65.75;98642.44;4966542;28;20113;-42
2022/05/24 00:18:17;;;;;;;3.13;2.50;;;;;;;11.48;65.69;98637.34;4965761;28;20093;-41
2022/05/24 00:20:49;;;;;;;4.18;3.05;;;;;;;11.44;65.35;98638.31;4959611;28;20050;-45
2022/05/24 00:23:17;;;;;;;4.03;2.72;;;;;;;11.44;65.02;98649.53;4956620;28;20053;-40
2022/05/24 00:25:47;;;;;;;4.15;2.22;;;;;;;11.45;65.63;98652.97;4961893;28;20586;-43
2022/05/24 00:28:14;;;;;;;;;;;;;;;11.28;66.05;98649.13;4960567;28;20098;-42
2022/05/24 00:30:42;;;;;;;3.03;1.23;;;;;;;11.41;65.55;98648.78;4958017;28;20251;-42
2022/05/24 00:33:10;;;;;;;4.78;2.92;;;;;;;11.41;65.67;98648.78;4958350;28;20055;-44
2022/05/24 00:35:38;;;;;;;4.75;3.08;;;;;;;11.42;65.72;98646.13;4960077;28;20585;-41
2022/05/24 00:38:09;;;;;;;3.63;2.72;;;;;;;11.44;66.31;98646.09;4954216;28;20062;-46
2022/05/24 00:41:02;;;;;;;6.15;2.88;;;;;;;11.39;66.23;98656.59;4957206;28;20084;-43
2022/05/24 00:43:35;;;;;;;2.60;1.20;;;;;;;11.42;65.85;98642.72;4955613;28;20689;-46
2022/05/24 00:46:11;;;;;;;3.63;2.75;;;;;;;11.39;66.37;98640.19;4957073;28;20053;-41
2022/05/24 00:48:48;;;;;;;3.80;3.15;;;;;;;11.38;65.89;98643.69;4964949;28;20059;-42
2022/05/24 00:51:24;;;;;;;3.30;2.67;;;;;;;11.38;65.51;98641.09;4960539;28;21038;-45
2022/05/24 00:53:53;;;;;;;4.65;2.58;;;;;;;11.39;65.71;98645.38;4956093;28;20142;-43
2022/05/24 00:57:00;;;;;;;3.85;3.08;;;;;;;11.33;65.83;98651.59;4958700;28;20621;-44
2022/05/24 01:04:41;;;;;;;2.65;1.65;;;;;;;11.39;65.62;98647.97;5041574;27;20409;-41
2022/05/24 01:07:09;;;;;;;3.60;2.20;;;;;;;11.38;66.54;98654.06;5038074;28;20531;-44
2022/05/24 01:14:50;;;;;;;2.95;1.48;;;;;;;11.35;66.45;98654.16;5060037;28;20395;-42
2022/05/24 01:17:17;;;;;;;3.80;2.33;;;;;;;11.34;65.95;98650.69;5017943;27;20437;-44
2022/05/24 01:19:47;;;;;;;3.70;1.88;;;;;;;11.36;66.84;98650.66;5012191;28;20056;-45
2022/05/24 01:22:39;;;;;;;3.75;2.20;;;;;;;11.32;66.02;98650.72;5007524;28;20050;-41
2022/05/24 07:09:01;;;;;;;3.40;2.40;;;;;;;14.95;61.41;98910.03;5051057;28;20395;-46
2022/05/24 07:11:29;;;;;;;3.20;2.30;;;;;;;14.90;61.12;98912.81;5034431;28;20049;-47
2022/05/24 07:13:55;;;;;;;3.83;3.42;;;;;;;15.03;60.84;98918.41;5035266;28;20871;-42
2022/05/24 07:16:22;;;;;;;4.10;2.90;;;;;;;15.37;61.33;98923.19;5037831;28;20045;-47
2022/05/24 07:18:49;;;;;;;3.20;2.25;;;;;;;15.71;60.17;98919.19;5036960;28;20538;-47
2022/05/24 07:21:16;;;;;;;3.83;2.42;;;;;;;15.81;58.90;98925.69;5032282;28;20091;-47
2022/05/24 07:23:43;;;;;;;3.45;2.55;;;;;;;15.87;58.69;98928.97;5037489;28;20136;-48
2022/05/24 07:26:14;;;;;;;4.55;2.47;;;;;;;15.85;57.88;98928.19;5039285;28;20132;-48
2022/05/24 07:28:56;;;;;;;5.82;3.13;;;;;;;15.90;58.02;98934.91;5039631;28;20081;-47
2022/05/24 07:31:23;;;;;;;2.72;1.02;;;;;;;15.89;57.50;98932.34;5036411;28;20475;-43
2022/05/24 07:33:51;;;;;;;2.63;2.42;;;;;;;15.87;57.75;98931.59;5039671;28;20132;-45
2022/05/24 07:36:18;;;;;;;6.95;3.42;;;;;;;15.79;57.50;98942.34;5040485;28;20049;-50
2022/05/24 07:38:45;;;;;;;2.78;2.58;;;;;;;15.67;57.43;98947.16;5036106;28;20052;-44
2022/05/24 07:46:45;;;;;;;4.30;2.97;;;;;;;15.42;57.81;98956.00;5037999;28;20045;-45
2022/05/24 07:49:11;;;;;;;3.20;2.50;;;;;;;15.38;57.58;98964.88;5039318;28;20103;-43
2022/05/24 07:51:38;;;;;;;3.90;2.03;;;;;;;15.39;57.97;98971.78;5040665;28;20049;-44
2022/05/24 07:54:22;;;;;;;2.42;1.90;;;;;;;15.41;58.42;98962.13;5040353;28;20052;-43
2022/05/24 07:56:48;;;;;;;3.75;1.67;;;;;;;15.40;57.65;98970.03;5043601;28;20045;-46
2022/05/24 07:59:15;;;;;;;3.33;2.08;;;;;;;15.37;57.32;98973.59;5043154;28;20099;-46
2022/05/24 08:01:42;;;;;;;4.68;1.65;;;;;;;15.33;57.46;98982.47;5042331;28;20037;-45
2022/05/24 08:04:09;;;;;;;4.68;2.67;;;;;;;15.25;56.93;98981.91;5037949;28;20139;-45
2022/05/24 08:06:36;;;;;;;3.83;1.00;;;;;;;15.25;57.19;98981.91;5036231;28;20696;-45
2022/05/24 08:09:03;;;;;;;3.53;2.35;;;;;;;15.21;56.58;98983.81;5033894;28;20041;-48
2022/05/24 08:11:31;;;;;;;3.35;0.80;;;;;;;15.15;57.11;98978.81;5038100;28;20393;-51
2022/05/24 08:13:59;;;;;;;2.55;2.15;;;;;;;15.23;56.67;98981.13;5036863;28;20161;-44
2022/05/24 08:16:26;;;;;;;5.30;3.35;;;;;;;15.30;56.47;98982.56;5041760;28;20049;-44
2022/05/24 08:18:53;;;;;;;2.35;2.15;;;;;;;15.32;56.21;98988.59;5034289;28;20052;-46
2022/05/24 08:21:20;;;;;;;3.63;2.28;;;;;;;15.26;55.89;98981.84;5025981;28;20368;-44
2022/05/24 08:23:47;;;;;;;2.10;1.95;;;;;;;15.23;56.00;98986.34;5028241;28;20551;-46
2022/05/24 08:26:13;;;;;;;2.05;1.95;;;;;;;15.26;56.29;98989.69;5023308;28;20132;-48
2022/05/24 08:28:41;;;;;;;1.73;1.63;;;;;;;15.25;55.97;98994.94;5026246;28;20049;-48
2022/05/24 08:31:09;;;;;;;2.38;1.58;;;;;;;15.27;55.50;98985.31;5028210;28;20038;-46
2022/05/24 08:33:36;;;;;;;2.92;2.55;;;;;;;15.68;55.80;98988.00;5027675;28;20082;-46
2022/05/24 08:36:03;;;;;;;2.65;2.22;;;;;;;16.28;54.94;98980.38;5010195;28;20046;-45
2022/05/24 08:38:31;;;;;;;2.92;2.53;;;;;;;16.79;54.20;98983.31;5029377;28;20045;-56
2022/05/24 08:41:01;;;;;;;3.13;1.20;;;;;;;17.22;53.84;98992.72;5026405;28;20584;-43
2022/05/24 08:49:07;;;;;;;3.20;1.65;;;;;;;17.56;51.38;99000.75;5021303;28;20045;-48
2022/05/24 08:51:57;;;;;;;5.22;2.60;;;;;;;17.31;51.22;99004.53;5021061;28;20049;-46
2022/05/24 08:54:35;;;;;;;2.50;1.50;;;;;;;17.15;51.60;99002.66;5024099;28;20046;-47
2022/05/24 08:57:05;;;;;;;4.32;2.05;;;;;;;17.01;52.25;99005.03;5022309;28;20046;-42
2022/05/24 08:59:37;;;;;;;2.33;1.20;;;;;;;16.86;52.66;98996.97;5026901;28;20133;-51
2022/05/24 09:02:07;;;;;;;5.22;2.35;;;;;;;16.81;52.39;99004.16;5021956;28;20189;-43
2022/05/24 09:04:34;;;;;;;2.35;1.60;;;;;;;16.86;52.85;99007.44;5022629;28;20515;-45
2022/05/24 09:09:54;;;;;;;2.75;1.70;;;;;;;17.17;53.02;99006.06;5063390;28;20396;-42
2022/05/24 09:21:02;;;;;;;1.63;1.00;;;;;;;19.12;48.07;99014.66;5061761;27;20411;-52
2022/05/24 09:26:10;;;;;;;1.65;0.80;;;;;;;18.94;47.47;99026.13;5029060;28;20968;-47
2022/05/24 09:28:51;;;;;;;1.02;0.60;;;;;;;19.00;46.54;99024.06;5024724;28;20049;-47
2022/05/24 09:31:24;;;;;;;3.33;0.85;;;;;;;19.14;46.62;99019.84;5015899;28;20049;-45
2022/05/24 09:33:56;;;;;;;1.25;0.30;;;;;;;19.36;46.99;99021.28;5022926;28;20127;-50
2022/05/24 09:36:41;;;;;;;0.75;0.65;;;;;;;19.41;46.67;99031.53;5021282;28;20046;-45
2022/05/24 09:39:45;;;;;;;1.60;0.82;;;;;;;19.26;45.35;99027.03;5022486;28;20103;-47
2022/05/24 09:42:15;;;;;;;0.77;0.50;;;;;;;19.05;46.69;99022.94;5007978;28;20108;-44
2022/05/24 09:47:27;;;;;;;1.17;0.52;;;;;;;18.99;45.51;99029.38;5021539;27;20410;-43
2022/05/24 09:50:03;;;;;;;0.60;0.50;;;;;;;19.02;45.85;99030.03;5023720;28;20632;-45
2022/05/24 09:52:30;;;;;;;0.93;0.90;;;;;;;19.05;45.47;99036.06;5021342;28;20045;-46
2022/05/24 09:54:59;;;;;;;0.75;0.75;;;;;;;18.91;45.79;99037.66;5023390;28;20103;-47
2022/05/24 09:57:29;;;;;;;0.65;0.65;;;;;;;18.80;45.62;99045.25;5021227;28;20053;-45
2022/05/24 10:00:04;;;;;;;0.98;0.88;;;;;;;18.61;45.54;99047.06;5021021;28;20049;-43
2022/05/24 10:02:34;;;;;;;1.55;1.00;;;;;;;18.55;46.28;99043.91;5019504;28;20054;-45
2022/05/24 10:05:03;;;;;;;9.75;2.67;;;;;;;18.40;46.14;99049.03;5020991;28;20042;-51
2022/05/24 10:07:32;;;;;;;4.30;1.77;;;;;;;18.35;46.47;99056.28;5022633;28;20045;-46
2022/05/24 10:10:23;;;;;;;0.68;0.65;;;;;;;18.36;46.33;99056.22;5022377;28;20049;-43
2022/05/24 10:21:39;;;;;;;1.25;1.10;;;;;;;19.82;45.43;99045.88;5034766;28;20405;-45
2022/05/24 10:41:26;;;;;;;1.35;1.25;;;;;;;20.62;39.56;99055.25;5014748;28;20413;-48
2022/05/24 10:46:44;;;;;;;0.50;0.47;;;;;;;20.81;40.38;99055.84;5029005;27;20403;-48
2022/05/24 10:57:15;;;;;;;2.40;0.47;;;;;;;20.70;39.83;99071.44;5049692;28;20395;-50
2022/05/24 11:05:11;;;;;;;1.50;0.30;;;;;;;19.74;38.88;99072.56;5022990;28;21160;-46
2022/05/24 11:07:39;;;;;;;2.00;0.98;;;;;;;19.61;40.28;99075.91;5016053;28;20041;-46
2022/05/24 11:10:21;;;;;;;2.20;0.45;;;;;;;19.92;41.50;99070.66;5019266;28;20072;-47
2022/05/24 11:12:51;;;;;;;0.85;0.85;;;;;;;20.25;40.73;99067.06;5014929;28;20046;-56
2022/05/24 11:15:23;;;;;;;0.60;0.43;;;;;;;20.25;40.16;99072.31;5014458;28;20061;-48
2022/05/24 11:17:51;;;;;;;1.05;0.45;;;;;;;20.36;40.88;99074.31;5018945;28;20053;-52
2022/05/24 11:20:24;;;;;;;1.25;0.50;;;;;;;20.31;39.36;99080.78;5023867;28;20049;-49
2022/05/24 11:23:03;;;;;;;2.83;0.98;;;;;;;20.42;39.24;99071.31;5016536;28;20049;-51
2022/05/24 11:25:39;;;;;;;0.60;0.40;;;;;;;20.32;39.31;99077.19;5021411;28;20057;-53
2022/05/24 11:28:21;;;;;;;0.80;0.50;;;;;;;20.26;40.06;99081.88;5012452;28;20046;-49
2022/05/24 11:30:49;;;;;;;0.63;0.40;;;;;;;20.38;39.96;99082.09;5004889;28;20061;-49
2022/05/24 11:33:33;;;;;;;1.27;0.52;;;;;;;20.39;40.04;99089.03;5012034;28;20495;-46
2022/05/24 11:36:26;;;;;;;0.98;0.65;;;;;;;20.32;39.96;99087.72;5009087;28;20532;-52
2022/05/24 11:38:53;;;;;;;1.38;0.50;;;;;;;20.18;40.22;99092.00;5018498;28;20064;-50
2022/05/24 11:41:31;;;;;;;3.10;0.82;;;;;;;20.00;40.82;99089.50;5016034;28;20053;-50
2022/05/24 11:44:03;;;;;;;1.27;1.17;;;;;;;19.94;40.68;99089.84;5016438;28;20133;-52
2022/05/24 11:52:39;;;;;;;1.65;1.55;;;;;;;19.05;41.10;99117.41;5038406;28;20770;-51
2022/05/24 11:55:06;;;;;;;0.60;0.57;;;;;;;19.00;42.58;99136.88;5017684;28;20060;-52
2022/05/24 11:57:41;;;;;;;1.23;0.85;;;;;;;18.86;44.03;99131.50;5016813;28;20042;-47
2022/05/24 12:00:11;;;;;;;0.80;0.68;;;;;;;18.67;45.56;99135.06;5017190;28;20103;-48
2022/05/24 12:08:31;;;;;;;1.33;0.70;;;;;;;18.56;47.29;99126.88;4994783;28;20050;-51
2022/05/24 12:21:41;;;;;;;1.10;1.10;;;;;;;18.29;41.65;99129.97;5049893;27;20402;-54
2022/05/24 12:29:41;;;;;;;0.73;0.73;;;;;;;18.40;43.31;99156.50;5055556;28;20387;-49
2022/05/24 12:32:08;;;;;;;1.02;0.45;;;;;;;18.22;42.98;99151.25;5021113;28;20049;-51
2022/05/24 12:34:35;;;;;;;0.80;0.80;;;;;;;17.91;43.80;99147.47;5022424;28;20505;-47
2022/05/24 12:37:15;;;;;;;0.52;0.47;;;;;;;17.67;44.30;99145.06;5016891;28;20057;-53
2022/05/24 12:40:22;;;;;;;0.80;0.57;;;;;;;17.31;43.84;99144.09;5020789;28;20050;-51
2022/05/24 18:04:43;;;;;;;1.13;0.68;;;;;;;17.50;42.84;99380.63;5026417;28;20398;-50
2022/05/24 18:07:12;;;;;;;0.93;0.65;;;;;;;17.41;43.63;99389.72;5018316;28;20128;-47
2022/05/24 18:09:39;;;;;;;0.85;0.20;;;;;;;17.33;42.56;99388.25;5012207;28;22110;-47
2022/05/24 18:12:24;;;;;;;0.93;0.70;;;;;;;17.24;43.37;99383.41;5020163;28;20054;-46
2022/05/24 18:14:51;;;;;;;0.90;0.68;;;;;;;17.14;43.28;99398.66;5006817;28;20046;-50
2022/05/24 18:17:17;;;;;;;0.40;0.30;;;;;;;17.07;43.11;99395.44;5015341;28;20046;-48
2022/05/24 18:19:44;;;;;;;1.85;0.30;;;;;;;17.00;42.96;99390.47;5017860;28;20155;-50
2022/05/24 18:22:17;;;;;;;0.88;0.20;;;;;;;16.91;43.46;99399.53;5018813;28;20044;-52
2022/05/24 18:24:51;;;;;;;1.45;0.73;;;;;;;16.85;43.66;99391.94;5019913;28;20054;-43
2022/05/24 18:33:08;;;;;;;1.45;0.45;;;;;;;16.67;44.17;99395.19;5004253;28;20543;-51
2022/05/24 18:35:39;;;;;;;1.02;0.47;;;;;;;16.63;44.31;99398.00;5011365;28;20131;-52
2022/05/24 18:38:07;;;;;;;1.13;0.57;;;;;;;16.56;44.20;99407.84;5013829;28;20057;-46
2022/05/24 18:40:53;;;;;;;0.63;0.47;;;;;;;16.45;45.11;99400.41;5013495;28;20057;-51
2022/05/24 18:43:20;;;;;;;2.10;1.00;;;;;;;16.40;45.02;99410.16;5019379;28;20045;-51
2022/05/24 18:45:46;;;;;;;1.95;0.47;;;;;;;16.33;44.81;99412.16;5015701;28;20108;-50
2022/05/24 18:48:13;;;;;;;1.80;0.30;;;;;;;16.27;45.04;99412.38;5013824;28;20057;-50
2022/05/24 18:50:40;;;;;;;1.27;0.73;;;;;;;16.19;45.27;99416.09;5015746;28;20050;-51
2022/05/24 18:53:08;;;;;;;0.95;0.85;;;;;;;16.10;45.25;99426.91;5012364;28;20140;-49
2022/05/24 18:55:36;;;;;;;1.65;0.32;;;;;;;16.04;45.69;99427.09;5006269;28;20429;-48
2022/05/24 18:58:04;;;;;;;1.77;1.67;;;;;;;15.98;45.40;99427.34;5007953;28;20057;-50
2022/05/24 19:00:30;;;;;;;0.90;0.60;;;;;;;15.92;45.13;99426.63;5011945;28;20049;-49
2022/05/24 19:02:57;;;;;;;0.73;0.63;;;;;;;15.87;45.75;99431.13;5017623;28;20053;-51
2022/05/24 19:05:25;;;;;;;0.73;0.52;;;;;;;15.84;46.05;99439.06;5021652;28;20049;-53
2022/05/24 19:07:51;;;;;;;0.57;0.30;;;;;;;15.80;45.90;99447.91;5018529;28;20065;-47
2022/05/24 19:10:19;;;;;;;0.88;0.68;;;;;;;15.80;46.29;99447.91;5012953;28;20063;-49
2022/05/24 19:12:46;;;;;;;1.80;0.85;;;;;;;15.77;46.25;99451.50;5022422;28;20405;-47
2022/05/24 19:15:12;;;;;;;3.63;1.00;;;;;;;15.76;46.00;99448.94;5012814;28;20402;-53
2022/05/24 19:17:40;;;;;;;1.17;0.55;;;;;;;15.72;45.93;99450.81;5006344;28;20390;-45
2022/05/24 19:20:09;;;;;;;4.20;0.73;;;;;;;15.68;45.98;99451.81;5002913;28;20477;-45
2022/05/24 19:22:36;;;;;;;1.85;0.60;;;;;;;15.63;46.49;99464.16;5007325;28;20814;-44
2022/05/24 19:25:04;;;;;;;1.77;0.43;;;;;;;15.55;46.61;99462.66;5004407;28;20054;-45
2022/05/24 19:27:31;;;;;;;1.50;0.95;;;;;;;15.52;46.79;99457.53;5001892;28;20409;-49
2022/05/24 19:29:59;;;;;;;1.90;0.77;;;;;;;15.50;46.69;99461.94;5009424;28;20049;-48
2022/05/24 19:32:26;;;;;;;1.80;0.60;;;;;;;15.45;46.72;99463.00;5010359;28;20104;-57
2022/05/24 19:34:55;;;;;;;0.85;0.50;;;;;;;15.45;46.82;99460.38;5006632;28;20049;-53
2022/05/24 19:37:23;;;;;;;2.17;0.75;;;;;;;15.41;47.53;99465.69;5009170;28;20046;-52
2022/05/24 19:42:43;;;;;;;2.53;0.50;;;;;;;15.35;47.32;99471.13;5007945;28;20125;-53
2022/05/24 19:45:11;;;;;;;1.20;0.68;;;;;;;15.32;47.60;99473.84;5005560;28;20111;-50
2022/05/24 19:47:38;;;;;;;3.85;1.20;;;;;;;15.29;47.55;99476.53;5009771;28;20046;-52
2022/05/24 19:50:07;;;;;;;1.35;0.50;;;;;;;15.26;47.10;99481.84;5008595;28;20512;-45
2022/05/24 19:52:34;;;;;;;1.45;0.63;;;;;;;15.21;46.73;99483.75;5005101;28;20541;-49
2022/05/24 19:55:02;;;;;;;1.90;0.50;;;;;;;15.13;47.58;99477.00;5003855;28;20050;-52
2022/05/24 19:57:30;;;;;;;0.77;0.45;;;;;;;15.08;47.36;99480.66;5005432;28;20417;-49
2022/05/24 19:59:58;;;;;;;1.25;0.57;;;;;;;15.00;47.20;99492.19;5006672;28;20051;-55
2022/05/24 20:02:26;;;;;;;1.42;0.40;;;;;;;14.95;48.16;99498.44;5004304;28;20213;-53
2022/05/24 20:04:53;;;;;;;1.10;0.52;;;;;;;14.87;48.10;99494.31;5005321;28;20049;-46
2022/05/24 20:07:21;;;;;;;0.50;0.40;;;;;;;14.84;48.13;99490.94;5005268;28;20049;-45
2022/05/24 20:09:48;;;;;;;0.75;0.75;;;;;;;14.76;48.58;99496.34;5003759;28;20042;-50
2022/05/24 20:12:16;;;;;;;1.02;0.22;;;;;;;14.71;48.33;99496.47;5005093;28;20053;-48
2022/05/24 20:14:43;;;;;;;1.00;0.50;;;;;;;14.64;47.91;99507.97;5010801;28;20050;-54
2022/05/24 20:17:13;;;;;;;0.90;0.52;;;;;;;14.57;48.38;99504.69;5000572;28;20068;-48
2022/05/24 20:19:40;;;;;;;0.95;0.30;;;;;;;14.52;48.45;99511.78;5006102;28;20085;-52
2022/05/24 20:22:08;;;;;;;1.15;0.43;;;;;;;14.48;48.25;99523.19;5007785;28;20046;-47
2022/05/24 20:24:38;;;;;;;2.00;0.85;;;;;;;14.44;48.30;99525.03;5003648;28;20045;-46
2022/05/24 20:27:11;;;;;;;1.85;0.82;;;;;;;14.40;49.17;99529.44;5003720;28;20085;-49
2022/05/24 20:29:39;;;;;;;2.38;0.60;;;;;;;14.38;48.38;99531.25;5006004;28;20041;-53
2022/05/24 20:32:06;;;;;;;0.80;0.40;;;;;;;14.35;49.29;99535.66;5001834;28;20046;-44
2022/05/24 20:34:38;;;;;;;1.27;1.17;;;;;;;14.31;49.33;99531.44;5007668;28;20053;-52
2022/05/24 20:37:09;;;;;;;0.57;0.32;;;;;;;14.25;48.55;99529.84;5007859;28;20096;-51
2022/05/24 20:39:36;;;;;;;1.20;0.75;;;;;;;14.21;49.20;99533.44;5001306;28;20054;-49
2022/05/24 20:42:06;;;;;;;2.00;0.75;;;;;;;14.16;49.80;99535.31;5005009;28;20049;-54
2022/05/24 20:44:34;;;;;;;;;;;;;;;13.90;49.90;99534.22;5007752;28;20120;-46
2022/05/24 20:47:01;;;;;;;1.73;0.73;;;;;;;13.95;48.81;99535.81;4999006;28;19929;-51
2022/05/24 20:49:28;;;;;;;0.85;0.85;;;;;;;13.87;50.06;99540.34;5005443;28;20401;-48
2022/05/24 20:51:55;;;;;;;2.05;0.70;;;;;;;13.81;49.92;99546.56;5003317;28;20060;-47
2022/05/24 20:54:23;;;;;;;0.82;0.65;;;;;;;13.73;49.42;99545.91;5004639;28;20536;-50
2022/05/24 20:56:50;;;;;;;1.27;0.43;;;;;;;13.66;49.60;99544.34;5005046;28;20042;-49
2022/05/24 20:59:22;;;;;;;2.67;0.40;;;;;;;13.59;50.63;99541.91;5005887;28;20137;-53
2022/05/24 21:01:51;;;;;;;3.72;0.90;;;;;;;13.56;50.21;99541.09;5002956;28;20050;-44
2022/05/24 21:04:19;;;;;;;2.25;0.82;;;;;;;13.49;50.30;99541.25;5003506;28;20049;-53
2022/05/24 21:06:47;;;;;;;1.42;0.43;;;;;;;13.44;50.05;99542.22;5000567;28;20045;-48
2022/05/24 21:09:15;;;;;;;1.25;1.15;;;;;;;13.39;50.62;99544.91;5006296;28;20497;-45
2022/05/24 21:11:42;;;;;;;1.10;0.95;;;;;;;13.34;50.40;99552.81;5003457;28;20050;-50
2022/05/24 21:14:09;;;;;;;1.00;0.60;;;;;;;13.30;51.05;99551.16;5004250;28;20038;-46
2022/05/24 21:16:36;;;;;;;1.35;0.50;;;;;;;13.27;50.93;99556.44;5002277;28;20548;-49
2022/05/24 21:19:03;;;;;;;1.73;0.85;;;;;;;13.24;51.12;99553.88;5006265;28;20054;-50
2022/05/24 21:21:30;;;;;;;1.20;0.57;;;;;;;13.23;51.61;99558.25;5004189;28;20046;-52
2022/05/24 21:23:57;;;;;;;0.90;0.38;;;;;;;13.23;51.68;99562.59;5004542;28;20046;-48
2022/05/24 21:29:12;;;;;;;1.05;0.93;;;;;;;13.19;51.17;99568.75;5003427;28;20101;-47
2022/05/24 21:31:39;;;;;;;1.83;0.52;;;;;;;13.17;52.19;99560.97;5005579;28;20050;-51
2022/05/24 21:34:06;;;;;;;1.08;0.43;;;;;;;13.15;51.37;99556.69;5003543;28;20065;-50
2022/05/24 21:36:33;;;;;;;2.35;0.90;;;;;;;13.13;52.17;99561.09;5005244;28;20100;-45
2022/05/24 21:39:00;;;;;;;0.93;0.63;;;;;;;13.10;52.39;99560.25;4998650;28;20038;-51
2022/05/24 21:41:28;;;;;;;1.58;0.75;;;;;;;13.09;51.69;99571.56;5003896;28;20042;-48
2022/05/24 21:43:55;;;;;;;1.48;0.77;;;;;;;13.05;51.88;99571.63;5001167;28;20046;-48
2022/05/24 21:46:22;;;;;;;1.70;0.75;;;;;;;12.99;52.19;99562.22;4999530;28;20052;-47
2022/05/24 21:48:49;;;;;;;4.03;0.70;;;;;;;12.96;52.91;99572.69;5010151;28;20601;-55
2022/05/24 21:51:16;;;;;;;1.83;0.60;;;;;;;12.90;53.27;99562.44;5004126;28;20057;-49
2022/05/24 21:53:42;;;;;;;5.25;0.95;;;;;;;12.82;52.54;99565.16;5007256;28;20375;-51
2022/05/24 21:56:20;;;;;;;1.92;1.08;;;;;;;12.71;53.54;99567.97;5003219;28;20563;-50
2022/05/24 21:58:49;;;;;;;2.22;1.05;;;;;;;12.66;53.97;99570.66;5003450;28;20081;-50
2022/05/24 22:01:15;;;;;;;2.05;0.63;;;;;;;12.59;54.14;99569.94;5002857;28;20078;-47
2022/05/24 22:03:45;;;;;;;1.17;0.77;;;;;;;12.54;53.93;99566.56;5006994;28;20045;-55
2022/05/24 22:06:19;;;;;;;1.13;0.93;;;;;;;12.47;53.30;99570.16;5005201;28;20049;-52
2022/05/24 22:08:46;;;;;;;2.13;0.77;;;;;;;12.38;53.43;99575.50;5008196;28;20045;-49
2022/05/24 22:11:19;;;;;;;3.10;0.80;;;;;;;12.30;53.68;99568.69;5003856;28;20057;-46
2022/05/24 22:13:47;;;;;;;2.15;1.40;;;;;;;12.23;54.64;99577.50;4999155;28;20041;-47
2022/05/24 22:16:16;;;;;;;1.33;0.75;;;;;;;12.18;53.80;99576.72;4998692;28;20050;-49
2022/05/24 22:18:43;;;;;;;1.33;0.98;;;;;;;12.13;54.68;99575.94;5000990;28;20042;-47
2022/05/24 22:21:10;;;;;;;3.30;1.05;;;;;;;12.05;54.97;99579.47;5003130;28;20045;-53
2022/05/24 22:23:39;;;;;;;1.90;1.30;;;;;;;12.01;54.30;99579.53;4998928;28;20054;-47
2022/05/24 22:26:08;;;;;;;4.20;1.00;;;;;;;11.94;54.85;99584.00;5003444;28;20046;-44
2022/05/24 22:28:35;;;;;;;1.88;1.33;;;;;;;11.87;54.90;99584.97;5006403;28;20046;-52
2022/05/24 22:31:02;;;;;;;3.05;0.82;;;;;;;11.79;54.72;99583.34;5003198;28;20076;-48
2022/05/24 22:33:29;;;;;;;1.55;0.77;;;;;;;11.73;54.21;99586.03;5003083;28;20045;-51
2022/05/24 22:35:59;;;;;;;2.03;1.50;;;;;;;11.68;55.38;99595.59;5001886;28;20042;-47
2022/05/24 22:38:26;;;;;;;2.30;0.63;;;;;;;11.62;55.02;99591.38;5002860;28;20527;-52
2022/05/24 22:41:12;;;;;;;2.50;1.17;;;;;;;11.50;55.39;99602.78;5001814;28;20049;-47
2022/05/24 22:43:39;;;;;;;2.35;1.25;;;;;;;11.51;54.44;99594.13;5004222;28;20056;-55
2022/05/24 22:46:09;;;;;;;3.42;0.85;;;;;;;11.46;54.79;99595.94;5001131;28;20375;-50
2022/05/24 22:48:36;;;;;;;1.38;0.65;;;;;;;11.42;55.49;99599.44;5005077;28;20088;-45
2022/05/24 22:51:09;;;;;;;1.83;1.23;;;;;;;11.37;54.90;99596.91;5008001;28;20046;-54
2022/05/24 22:53:38;;;;;;;1.50;1.10;;;;;;;11.34;54.51;99604.72;5005273;28;20049;-46
2022/05/24 22:56:06;;;;;;;1.50;0.88;;;;;;;11.30;55.32;99606.50;5005037;28;20058;-47
2022/05/24 22:58:33;;;;;;;1.33;0.70;;;;;;;11.25;55.09;99610.88;5008071;28;20054;-46
2022/05/24 23:00:59;;;;;;;2.45;1.48;;;;;;;11.19;55.01;99619.59;5007001;28;20060;-47
2022/05/24 23:03:26;;;;;;;2.58;0.40;;;;;;;11.14;55.72;99620.50;5003557;28;20049;-48
2022/05/24 23:05:54;;;;;;;1.73;0.85;;;;;;;11.11;55.50;99620.56;5006340;28;20045;-47
2022/05/24 23:08:21;;;;;;;2.10;0.93;;;;;;;11.07;55.09;99624.09;5003241;28;20050;-53
2022/05/24 23:10:48;;;;;;;1.48;0.88;;;;;;;11.02;55.73;99624.97;5006882;28;20041;-56
2022/05/24 23:13:15;;;;;;;1.58;0.95;;;;;;;10.99;55.31;99624.16;5001708;28;20045;-53
2022/05/24 23:15:42;;;;;;;2.47;1.40;;;;;;;10.94;55.96;99624.19;5006608;28;20054;-48
2022/05/24 23:18:09;;;;;;;1.33;0.55;;;;;;;10.89;55.55;99631.16;5004237;28;20100;-48
2022/05/24 23:20:35;;;;;;;2.13;1.13;;;;;;;10.85;55.69;99634.66;5005177;28;20053;-53
2022/05/24 23:23:02;;;;;;;1.95;1.25;;;;;;;10.78;56.34;99634.72;5004562;28;20061;-47
2022/05/24 23:25:29;;;;;;;1.02;0.68;;;;;;;10.74;56.21;99635.63;5004194;28;20088;-48
2022/05/24 23:27:55;;;;;;;0.93;0.82;;;;;;;10.70;56.11;99631.34;5006423;28;20555;-47
2022/05/24 23:30:22;;;;;;;1.30;0.80;;;;;;;10.67;56.42;99631.38;5004958;28;20057;-48
2022/05/24 23:32:49;;;;;;;2.35;0.70;;;;;;;10.64;55.84;99640.03;5008728;28;20049;-47
2022/05/24 23:35:16;;;;;;;1.00;0.90;;;;;;;10.59;55.98;99633.19;5006750;28;20052;-46
2022/05/24 23:37:43;;;;;;;1.38;0.75;;;;;;;10.54;55.90;99641.03;5009062;28;20042;-52
2022/05/24 23:40:10;;;;;;;1.63;0.95;;;;;;;10.48;56.28;99639.34;5007535;28;20078;-52
2022/05/24 23:42:37;;;;;;;2.40;0.65;;;;;;;10.43;56.45;99638.47;5009684;28;20054;-49
2022/05/24 23:45:04;;;;;;;1.98;0.77;;;;;;;10.40;56.44;99656.63;5005898;28;20042;-50
2022/05/24 23:47:31;;;;;;;1.40;0.98;;;;;;;10.36;56.66;99654.94;5006928;28;20362;-49
2022/05/24 23:49:59;;;;;;;1.10;0.40;;;;;;;10.32;56.65;99661.88;5005915;28;20077;-47
2022/05/24 23:52:27;;;;;;;2.97;0.70;;;;;;;10.28;56.82;99660.19;5003909;28;20509;-44
2022/05/24 23:54:54;;;;;;;0.90;0.45;;;;;;;10.26;57.02;99662.78;5004424;28;20077;-51
2022/05/24 23:57:21;;;;;;;1.15;0.50;;;;;;;10.23;56.81;99657.63;5002991;28;20046;-46
2022/05/24 23:59:56;;;;;;;1.15;0.80;;;;;;;10.18;57.23;99659.41;5003817;28;20421;-46
